sensor_id;sensor_type;location;lat;lon;timestamp;P1;durP1;ratioP1;P2;durP2;ratioP2
52978;SDS011;63430;53.186;6.598;2023-02-28T00:00:17;10.23;;;8.38;;
52978;SDS011;63430;53.186;6.598;2023-02-28T00:02:21;8.77;;;8.07;;
52978;SDS011;63430;53.186;6.598;2023-02-28T00:04:26;10.05;;;7.70;;
52978;SDS011;63430;53.186;6.598;2023-02-28T00:06:29;8.32;;;7.63;;
52978;SDS011;63430;53.186;6.598;2023-02-28T00:08:31;9.00;;;7.43;;
52978;SDS011;63430;53.186;6.598;2023-02-28T00:10:34;8.75;;;7.95;;
52978;SDS011;63430;53.186;6.598;2023-02-28T00:12:36;8.57;;;7.97;;
52978;SDS011;63430;53.186;6.598;2023-02-28T00:14:39;9.00;;;8.13;;
52978;SDS011;63430;53.186;6.598;2023-02-28T00:16:41;8.40;;;7.75;;
52978;SDS011;63430;53.186;6.598;2023-02-28T00:18:44;9.82;;;8.18;;
52978;SDS011;63430;53.186;6.598;2023-02-28T00:20:49;11.07;;;8.60;;
52978;SDS011;63430;53.186;6.598;2023-02-28T00:22:52;11.63;;;8.45;;
52978;SDS011;63430;53.186;6.598;2023-02-28T00:24:55;9.93;;;8.57;;
52978;SDS011;63430;53.186;6.598;2023-02-28T00:26:57;8.10;;;7.50;;
52978;SDS011;63430;53.186;6.598;2023-02-28T00:29:00;8.70;;;7.80;;
52978;SDS011;63430;53.186;6.598;2023-02-28T00:31:03;8.40;;;7.80;;
52978;SDS011;63430;53.186;6.598;2023-02-28T00:33:06;8.73;;;8.02;;
52978;SDS011;63430;53.186;6.598;2023-02-28T00:35:09;8.35;;;7.72;;
52978;SDS011;63430;53.186;6.598;2023-02-28T00:37:15;10.55;;;8.18;;
52978;SDS011;63430;53.186;6.598;2023-02-28T00:39:18;8.27;;;7.57;;
52978;SDS011;63430;53.186;6.598;2023-02-28T00:41:26;9.18;;;8.25;;
52978;SDS011;63430;53.186;6.598;2023-02-28T00:43:29;8.93;;;8.07;;
52978;SDS011;63430;53.186;6.598;2023-02-28T00:45:32;9.43;;;8.30;;
52978;SDS011;63430;53.186;6.598;2023-02-28T00:47:34;8.90;;;8.10;;
52978;SDS011;63430;53.186;6.598;2023-02-28T00:49:37;10.18;;;8.35;;
52978;SDS011;63430;53.186;6.598;2023-02-28T00:51:40;9.43;;;8.32;;
52978;SDS011;63430;53.186;6.598;2023-02-28T00:53:45;9.48;;;8.52;;
52978;SDS011;63430;53.186;6.598;2023-02-28T00:55:48;11.52;;;8.07;;
52978;SDS011;63430;53.186;6.598;2023-02-28T00:57:51;9.57;;;8.75;;
52978;SDS011;63430;53.186;6.598;2023-02-28T00:59:53;8.45;;;7.65;;
52978;SDS011;63430;53.186;6.598;2023-02-28T01:01:56;12.35;;;8.70;;
52978;SDS011;63430;53.186;6.598;2023-02-28T01:03:58;13.00;;;8.85;;
52978;SDS011;63430;53.186;6.598;2023-02-28T01:06:01;11.73;;;8.25;;
52978;SDS011;63430;53.186;6.598;2023-02-28T01:08:04;8.80;;;8.15;;
52978;SDS011;63430;53.186;6.598;2023-02-28T01:10:10;9.70;;;8.68;;
52978;SDS011;63430;53.186;6.598;2023-02-28T01:12:13;8.75;;;7.55;;
52978;SDS011;63430;53.186;6.598;2023-02-28T01:14:16;9.15;;;8.35;;
52978;SDS011;63430;53.186;6.598;2023-02-28T01:16:20;11.93;;;8.52;;
52978;SDS011;63430;53.186;6.598;2023-02-28T01:18:22;12.43;;;8.80;;
52978;SDS011;63430;53.186;6.598;2023-02-28T01:20:26;8.80;;;8.10;;
52978;SDS011;63430;53.186;6.598;2023-02-28T01:22:28;10.23;;;7.97;;
52978;SDS011;63430;53.186;6.598;2023-02-28T01:24:31;8.82;;;7.97;;
52978;SDS011;63430;53.186;6.598;2023-02-28T01:26:37;9.80;;;8.70;;
52978;SDS011;63430;53.186;6.598;2023-02-28T01:28:41;10.43;;;8.68;;
52978;SDS011;63430;53.186;6.598;2023-02-28T01:30:47;9.75;;;8.68;;
52978;SDS011;63430;53.186;6.598;2023-02-28T01:32:50;9.35;;;8.55;;
52978;SDS011;63430;53.186;6.598;2023-02-28T01:34:55;10.15;;;8.98;;
52978;SDS011;63430;53.186;6.598;2023-02-28T01:36:57;10.30;;;8.45;;
52978;SDS011;63430;53.186;6.598;2023-02-28T01:39:00;10.27;;;8.63;;
52978;SDS011;63430;53.186;6.598;2023-02-28T01:41:04;11.55;;;8.25;;
52978;SDS011;63430;53.186;6.598;2023-02-28T01:43:12;9.48;;;8.77;;
52978;SDS011;63430;53.186;6.598;2023-02-28T01:45:23;9.52;;;8.63;;
52978;SDS011;63430;53.186;6.598;2023-02-28T01:47:29;9.55;;;8.75;;
52978;SDS011;63430;53.186;6.598;2023-02-28T01:49:34;10.27;;;8.27;;
52978;SDS011;63430;53.186;6.598;2023-02-28T01:51:39;10.60;;;9.55;;
52978;SDS011;63430;53.186;6.598;2023-02-28T01:53:49;9.60;;;8.80;;
52978;SDS011;63430;53.186;6.598;2023-02-28T01:55:55;11.70;;;9.32;;
52978;SDS011;63430;53.186;6.598;2023-02-28T01:58:00;9.93;;;9.02;;
52978;SDS011;63430;53.186;6.598;2023-02-28T02:00:10;9.15;;;8.23;;
52978;SDS011;63430;53.186;6.598;2023-02-28T02:02:21;10.00;;;9.00;;
52978;SDS011;63430;53.186;6.598;2023-02-28T02:04:41;10.07;;;9.07;;
52978;SDS011;63430;53.186;6.598;2023-02-28T02:06:53;12.95;;;9.80;;
52978;SDS011;63430;53.186;6.598;2023-02-28T02:08:56;11.47;;;9.60;;
52978;SDS011;63430;53.186;6.598;2023-02-28T02:10:59;9.55;;;8.70;;
52978;SDS011;63430;53.186;6.598;2023-02-28T02:13:07;8.77;;;7.97;;
52978;SDS011;63430;53.186;6.598;2023-02-28T02:15:19;9.43;;;8.63;;
52978;SDS011;63430;53.186;6.598;2023-02-28T02:17:29;10.57;;;9.55;;
52978;SDS011;63430;53.186;6.598;2023-02-28T02:20:00;10.55;;;9.55;;
52978;SDS011;63430;53.186;6.598;2023-02-28T02:22:36;9.65;;;8.85;;
52978;SDS011;63430;53.186;6.598;2023-02-28T02:27:33;10.10;;;9.18;;
52978;SDS011;63430;53.186;6.598;2023-02-28T02:35:19;10.00;;;9.05;;
52978;SDS011;63430;53.186;6.598;2023-02-28T02:37:32;13.55;;;9.88;;
52978;SDS011;63430;53.186;6.598;2023-02-28T02:39:43;9.88;;;8.95;;
52978;SDS011;63430;53.186;6.598;2023-02-28T02:41:53;10.52;;;9.52;;
52978;SDS011;63430;53.186;6.598;2023-02-28T02:44:01;9.98;;;9.07;;
52978;SDS011;63430;53.186;6.598;2023-02-28T02:46:10;9.65;;;8.85;;
52978;SDS011;63430;53.186;6.598;2023-02-28T02:48:20;10.65;;;9.57;;
52978;SDS011;63430;53.186;6.598;2023-02-28T02:50:30;9.10;;;8.40;;
52978;SDS011;63430;53.186;6.598;2023-02-28T02:52:38;10.55;;;9.15;;
52978;SDS011;63430;53.186;6.598;2023-02-28T02:54:44;9.55;;;8.75;;
52978;SDS011;63430;53.186;6.598;2023-02-28T02:56:50;11.25;;;9.73;;
52978;SDS011;63430;53.186;6.598;2023-02-28T03:01:02;12.63;;;9.63;;
52978;SDS011;63430;53.186;6.598;2023-02-28T03:03:09;9.70;;;8.80;;
52978;SDS011;63430;53.186;6.598;2023-02-28T03:05:14;12.27;;;8.80;;
52978;SDS011;63430;53.186;6.598;2023-02-28T03:07:23;8.77;;;7.97;;
52978;SDS011;63430;53.186;6.598;2023-02-28T03:09:27;10.27;;;9.27;;
52978;SDS011;63430;53.186;6.598;2023-02-28T03:11:34;16.67;;;10.00;;
52978;SDS011;63430;53.186;6.598;2023-02-28T03:16:21;10.60;;;9.60;;
52978;SDS011;63430;53.186;6.598;2023-02-28T03:18:40;10.05;;;9.05;;
52978;SDS011;63430;53.186;6.598;2023-02-28T03:20:51;10.40;;;9.40;;
52978;SDS011;63430;53.186;6.598;2023-02-28T03:23:10;10.88;;;9.43;;
52978;SDS011;63430;53.186;6.598;2023-02-28T03:25:19;12.90;;;9.98;;
52978;SDS011;63430;53.186;6.598;2023-02-28T03:27:29;13.68;;;9.82;;
52978;SDS011;63430;53.186;6.598;2023-02-28T03:29:39;11.63;;;9.68;;
52978;SDS011;63430;53.186;6.598;2023-02-28T03:31:50;9.93;;;9.02;;
52978;SDS011;63430;53.186;6.598;2023-02-28T03:33:58;10.27;;;9.27;;
52978;SDS011;63430;53.186;6.598;2023-02-28T03:36:06;11.07;;;9.93;;
52978;SDS011;63430;53.186;6.598;2023-02-28T03:38:17;10.20;;;9.20;;
52978;SDS011;63430;53.186;6.598;2023-02-28T03:40:24;12.05;;;9.10;;
52978;SDS011;63430;53.186;6.598;2023-02-28T03:42:31;8.82;;;7.97;;
52978;SDS011;63430;53.186;6.598;2023-02-28T03:44:36;9.00;;;8.25;;
52978;SDS011;63430;53.186;6.598;2023-02-28T03:46:44;13.88;;;8.20;;
52978;SDS011;63430;53.186;6.598;2023-02-28T03:48:51;9.77;;;8.88;;
52978;SDS011;63430;53.186;6.598;2023-02-28T03:51:00;9.25;;;8.35;;
52978;SDS011;63430;53.186;6.598;2023-02-28T03:53:08;9.25;;;8.27;;
52978;SDS011;63430;53.186;6.598;2023-02-28T03:55:16;11.40;;;8.38;;
52978;SDS011;63430;53.186;6.598;2023-02-28T03:57:22;9.20;;;8.32;;
52978;SDS011;63430;53.186;6.598;2023-02-28T03:59:30;9.23;;;8.38;;
52978;SDS011;63430;53.186;6.598;2023-02-28T04:01:37;9.02;;;8.32;;
52978;SDS011;63430;53.186;6.598;2023-02-28T04:03:43;11.50;;;8.60;;
52978;SDS011;63430;53.186;6.598;2023-02-28T04:05:47;9.25;;;8.45;;
52978;SDS011;63430;53.186;6.598;2023-02-28T04:07:53;8.88;;;7.97;;
52978;SDS011;63430;53.186;6.598;2023-02-28T04:09:55;9.10;;;8.10;;
52978;SDS011;63430;53.186;6.598;2023-02-28T04:12:01;8.40;;;7.65;;
52978;SDS011;63430;53.186;6.598;2023-02-28T04:14:05;8.80;;;8.00;;
52978;SDS011;63430;53.186;6.598;2023-02-28T04:16:09;9.30;;;7.88;;
52978;SDS011;63430;53.186;6.598;2023-02-28T04:18:25;9.00;;;8.20;;
52978;SDS011;63430;53.186;6.598;2023-02-28T04:20:27;9.07;;;8.27;;
52978;SDS011;63430;53.186;6.598;2023-02-28T04:22:30;8.68;;;7.90;;
52978;SDS011;63430;53.186;6.598;2023-02-28T04:24:42;8.68;;;7.80;;
52978;SDS011;63430;53.186;6.598;2023-02-28T04:26:45;8.45;;;7.75;;
52978;SDS011;63430;53.186;6.598;2023-02-28T04:30:54;8.43;;;7.65;;
52978;SDS011;63430;53.186;6.598;2023-02-28T04:32:57;8.05;;;7.32;;
52978;SDS011;63430;53.186;6.598;2023-02-28T04:35:00;8.52;;;7.63;;
52978;SDS011;63430;53.186;6.598;2023-02-28T04:37:05;8.65;;;7.55;;
52978;SDS011;63430;53.186;6.598;2023-02-28T04:39:14;10.05;;;8.43;;
52978;SDS011;63430;53.186;6.598;2023-02-28T04:41:17;8.30;;;7.60;;
52978;SDS011;63430;53.186;6.598;2023-02-28T04:43:22;8.45;;;7.72;;
52978;SDS011;63430;53.186;6.598;2023-02-28T04:45:27;7.75;;;7.05;;
52978;SDS011;63430;53.186;6.598;2023-02-28T04:47:33;7.93;;;7.25;;
52978;SDS011;63430;53.186;6.598;2023-02-28T04:49:36;8.35;;;7.53;;
52978;SDS011;63430;53.186;6.598;2023-02-28T04:51:41;8.02;;;7.43;;
52978;SDS011;63430;53.186;6.598;2023-02-28T04:53:44;8.88;;;8.05;;
52978;SDS011;63430;53.186;6.598;2023-02-28T04:55:46;8.40;;;7.65;;
52978;SDS011;63430;53.186;6.598;2023-02-28T04:57:52;9.07;;;8.15;;
52978;SDS011;63430;53.186;6.598;2023-02-28T04:59:54;8.65;;;7.85;;
52978;SDS011;63430;53.186;6.598;2023-02-28T05:01:59;8.07;;;7.38;;
52978;SDS011;63430;53.186;6.598;2023-02-28T05:04:03;8.30;;;7.32;;
52978;SDS011;63430;53.186;6.598;2023-02-28T05:06:06;8.07;;;7.20;;
52978;SDS011;63430;53.186;6.598;2023-02-28T05:08:09;8.43;;;7.72;;
52978;SDS011;63430;53.186;6.598;2023-02-28T05:10:12;8.07;;;7.45;;
52978;SDS011;63430;53.186;6.598;2023-02-28T05:12:14;8.88;;;7.97;;
52978;SDS011;63430;53.186;6.598;2023-02-28T05:14:17;8.40;;;7.65;;
52978;SDS011;63430;53.186;6.598;2023-02-28T05:16:22;9.07;;;8.18;;
52978;SDS011;63430;53.186;6.598;2023-02-28T05:18:27;10.73;;;8.75;;
52978;SDS011;63430;53.186;6.598;2023-02-28T05:20:30;10.20;;;7.93;;
52978;SDS011;63430;53.186;6.598;2023-02-28T05:22:32;8.63;;;7.85;;
52978;SDS011;63430;53.186;6.598;2023-02-28T05:24:34;8.50;;;7.75;;
52978;SDS011;63430;53.186;6.598;2023-02-28T05:26:38;10.15;;;8.38;;
52978;SDS011;63430;53.186;6.598;2023-02-28T05:28:41;9.70;;;8.10;;
52978;SDS011;63430;53.186;6.598;2023-02-28T05:30:44;8.98;;;8.18;;
52978;SDS011;63430;53.186;6.598;2023-02-28T05:32:49;12.68;;;8.25;;
52978;SDS011;63430;53.186;6.598;2023-02-28T05:34:55;10.85;;;8.73;;
52978;SDS011;63430;53.186;6.598;2023-02-28T05:36:58;9.45;;;8.38;;
52978;SDS011;63430;53.186;6.598;2023-02-28T05:39:00;8.63;;;7.82;;
52978;SDS011;63430;53.186;6.598;2023-02-28T05:41:06;10.77;;;8.60;;
52978;SDS011;63430;53.186;6.598;2023-02-28T05:43:10;9.80;;;8.80;;
52978;SDS011;63430;53.186;6.598;2023-02-28T05:47:16;9.23;;;8.32;;
52978;SDS011;63430;53.186;6.598;2023-02-28T05:49:19;9.93;;;8.93;;
52978;SDS011;63430;53.186;6.598;2023-02-28T05:51:24;10.40;;;9.40;;
52978;SDS011;63430;53.186;6.598;2023-02-28T05:53:27;11.73;;;9.18;;
52978;SDS011;63430;53.186;6.598;2023-02-28T05:55:30;11.13;;;9.50;;
52978;SDS011;63430;53.186;6.598;2023-02-28T05:57:32;9.40;;;8.50;;
52978;SDS011;63430;53.186;6.598;2023-02-28T05:59:35;9.55;;;8.65;;
52978;SDS011;63430;53.186;6.598;2023-02-28T06:01:42;10.43;;;9.18;;
52978;SDS011;63430;53.186;6.598;2023-02-28T06:03:50;10.02;;;9.02;;
52978;SDS011;63430;53.186;6.598;2023-02-28T06:05:53;10.30;;;9.18;;
52978;SDS011;63430;53.186;6.598;2023-02-28T06:07:58;9.48;;;8.60;;
52978;SDS011;63430;53.186;6.598;2023-02-28T06:10:04;10.27;;;8.98;;
52978;SDS011;63430;53.186;6.598;2023-02-28T06:12:07;8.77;;;7.88;;
52978;SDS011;63430;53.186;6.598;2023-02-28T06:14:13;11.25;;;9.60;;
52978;SDS011;63430;53.186;6.598;2023-02-28T06:16:18;9.63;;;8.70;;
52978;SDS011;63430;53.186;6.598;2023-02-28T06:18:21;10.48;;;9.35;;
52978;SDS011;63430;53.186;6.598;2023-02-28T06:20:24;11.20;;;10.10;;
52978;SDS011;63430;53.186;6.598;2023-02-28T06:22:33;10.55;;;9.45;;
52978;SDS011;63430;53.186;6.598;2023-02-28T06:24:39;10.35;;;9.20;;
52978;SDS011;63430;53.186;6.598;2023-02-28T06:26:42;10.43;;;9.32;;
52978;SDS011;63430;53.186;6.598;2023-02-28T06:28:45;14.02;;;9.15;;
52978;SDS011;63430;53.186;6.598;2023-02-28T06:30:47;10.63;;;9.00;;
52978;SDS011;63430;53.186;6.598;2023-02-28T06:32:50;11.38;;;9.68;;
52978;SDS011;63430;53.186;6.598;2023-02-28T06:34:53;13.40;;;10.70;;
52978;SDS011;63430;53.186;6.598;2023-02-28T06:36:56;14.68;;;10.38;;
52978;SDS011;63430;53.186;6.598;2023-02-28T06:39:14;10.73;;;9.60;;
52978;SDS011;63430;53.186;6.598;2023-02-28T06:41:19;14.55;;;10.30;;
52978;SDS011;63430;53.186;6.598;2023-02-28T06:43:23;10.77;;;9.27;;
52978;SDS011;63430;53.186;6.598;2023-02-28T06:45:27;11.50;;;10.18;;
52978;SDS011;63430;53.186;6.598;2023-02-28T06:47:30;14.43;;;8.50;;
52978;SDS011;63430;53.186;6.598;2023-02-28T06:49:33;13.30;;;9.93;;
52978;SDS011;63430;53.186;6.598;2023-02-28T06:51:37;13.20;;;10.15;;
52978;SDS011;63430;53.186;6.598;2023-02-28T06:53:41;13.70;;;10.00;;
52978;SDS011;63430;53.186;6.598;2023-02-28T06:55:45;13.48;;;9.70;;
52978;SDS011;63430;53.186;6.598;2023-02-28T06:57:50;10.30;;;9.35;;
52978;SDS011;63430;53.186;6.598;2023-02-28T06:59:53;11.25;;;10.10;;
52978;SDS011;63430;53.186;6.598;2023-02-28T07:01:55;13.00;;;9.40;;
52978;SDS011;63430;53.186;6.598;2023-02-28T07:03:58;9.30;;;8.32;;
52978;SDS011;63430;53.186;6.598;2023-02-28T07:06:01;11.27;;;9.50;;
52978;SDS011;63430;53.186;6.598;2023-02-28T07:08:05;14.10;;;10.05;;
52978;SDS011;63430;53.186;6.598;2023-02-28T07:10:17;15.10;;;9.95;;
52978;SDS011;63430;53.186;6.598;2023-02-28T07:12:21;14.57;;;10.23;;
52978;SDS011;63430;53.186;6.598;2023-02-28T07:14:26;13.43;;;9.60;;
52978;SDS011;63430;53.186;6.598;2023-02-28T07:16:29;16.10;;;10.85;;
52978;SDS011;63430;53.186;6.598;2023-02-28T07:18:31;13.20;;;9.75;;
52978;SDS011;63430;53.186;6.598;2023-02-28T07:20:34;14.35;;;9.85;;
52978;SDS011;63430;53.186;6.598;2023-02-28T07:22:37;16.88;;;10.40;;
52978;SDS011;63430;53.186;6.598;2023-02-28T07:24:40;11.50;;;10.30;;
52978;SDS011;63430;53.186;6.598;2023-02-28T07:26:42;10.27;;;9.35;;
52978;SDS011;63430;53.186;6.598;2023-02-28T07:28:45;12.48;;;10.57;;
52978;SDS011;63430;53.186;6.598;2023-02-28T07:30:51;10.35;;;9.32;;
52978;SDS011;63430;53.186;6.598;2023-02-28T07:32:54;12.20;;;10.57;;
52978;SDS011;63430;53.186;6.598;2023-02-28T07:34:59;12.73;;;10.77;;
52978;SDS011;63430;53.186;6.598;2023-02-28T07:37:02;11.38;;;10.07;;
52978;SDS011;63430;53.186;6.598;2023-02-28T07:39:05;14.45;;;10.32;;
52978;SDS011;63430;53.186;6.598;2023-02-28T07:41:07;12.55;;;10.05;;
52978;SDS011;63430;53.186;6.598;2023-02-28T07:43:10;13.80;;;9.77;;
52978;SDS011;63430;53.186;6.598;2023-02-28T07:45:13;12.32;;;10.57;;
52978;SDS011;63430;53.186;6.598;2023-02-28T07:47:19;13.52;;;10.70;;
52978;SDS011;63430;53.186;6.598;2023-02-28T07:49:36;12.45;;;10.43;;
52978;SDS011;63430;53.186;6.598;2023-02-28T07:51:39;15.82;;;10.70;;
52978;SDS011;63430;53.186;6.598;2023-02-28T07:53:41;12.90;;;10.23;;
52978;SDS011;63430;53.186;6.598;2023-02-28T07:55:44;12.55;;;9.90;;
52978;SDS011;63430;53.186;6.598;2023-02-28T07:57:46;18.20;;;9.90;;
52978;SDS011;63430;53.186;6.598;2023-02-28T07:59:49;12.80;;;9.98;;
52978;SDS011;63430;53.186;6.598;2023-02-28T08:01:52;13.38;;;10.27;;
52978;SDS011;63430;53.186;6.598;2023-02-28T08:03:57;13.38;;;11.30;;
52978;SDS011;63430;53.186;6.598;2023-02-28T08:06:00;13.13;;;10.82;;
52978;SDS011;63430;53.186;6.598;2023-02-28T08:08:05;14.57;;;10.65;;
52978;SDS011;63430;53.186;6.598;2023-02-28T08:10:08;13.45;;;10.77;;
52978;SDS011;63430;53.186;6.598;2023-02-28T08:12:18;11.10;;;9.93;;
52978;SDS011;63430;53.186;6.598;2023-02-28T08:14:21;12.27;;;10.10;;
52978;SDS011;63430;53.186;6.598;2023-02-28T08:16:24;13.10;;;9.70;;
52978;SDS011;63430;53.186;6.598;2023-02-28T08:18:26;12.30;;;9.85;;
52978;SDS011;63430;53.186;6.598;2023-02-28T08:20:32;11.45;;;9.98;;
52978;SDS011;63430;53.186;6.598;2023-02-28T08:22:35;10.88;;;9.57;;
52978;SDS011;63430;53.186;6.598;2023-02-28T08:24:37;14.30;;;10.98;;
52978;SDS011;63430;53.186;6.598;2023-02-28T08:26:42;13.32;;;10.27;;
52978;SDS011;63430;53.186;6.598;2023-02-28T08:28:44;15.38;;;9.93;;
52978;SDS011;63430;53.186;6.598;2023-02-28T08:30:48;13.93;;;10.48;;
52978;SDS011;63430;53.186;6.598;2023-02-28T08:32:51;17.50;;;10.93;;
52978;SDS011;63430;53.186;6.598;2023-02-28T08:34:54;13.68;;;10.55;;
52978;SDS011;63430;53.186;6.598;2023-02-28T08:36:59;10.45;;;9.18;;
52978;SDS011;63430;53.186;6.598;2023-02-28T08:39:02;11.35;;;10.18;;
52978;SDS011;63430;53.186;6.598;2023-02-28T08:41:05;12.93;;;10.07;;
52978;SDS011;63430;53.186;6.598;2023-02-28T08:43:16;15.20;;;10.38;;
52978;SDS011;63430;53.186;6.598;2023-02-28T08:45:19;11.77;;;9.68;;
52978;SDS011;63430;53.186;6.598;2023-02-28T08:47:22;13.13;;;10.25;;
52978;SDS011;63430;53.186;6.598;2023-02-28T08:49:24;14.45;;;10.95;;
52978;SDS011;63430;53.186;6.598;2023-02-28T08:51:27;15.23;;;11.05;;
52978;SDS011;63430;53.186;6.598;2023-02-28T08:53:34;11.77;;;9.20;;
52978;SDS011;63430;53.186;6.598;2023-02-28T08:55:37;12.00;;;10.10;;
52978;SDS011;63430;53.186;6.598;2023-02-28T08:57:39;15.18;;;10.10;;
52978;SDS011;63430;53.186;6.598;2023-02-28T08:59:42;14.20;;;10.88;;
52978;SDS011;63430;53.186;6.598;2023-02-28T09:01:48;12.18;;;9.80;;
52978;SDS011;63430;53.186;6.598;2023-02-28T09:03:51;17.75;;;9.88;;
52978;SDS011;63430;53.186;6.598;2023-02-28T09:05:54;12.77;;;9.98;;
52978;SDS011;63430;53.186;6.598;2023-02-28T09:07:58;11.90;;;9.75;;
52978;SDS011;63430;53.186;6.598;2023-02-28T09:10:03;11.98;;;9.77;;
52978;SDS011;63430;53.186;6.598;2023-02-28T09:12:06;14.48;;;9.55;;
52978;SDS011;63430;53.186;6.598;2023-02-28T09:14:09;11.68;;;9.93;;
52978;SDS011;63430;53.186;6.598;2023-02-28T09:16:12;17.13;;;10.55;;
52978;SDS011;63430;53.186;6.598;2023-02-28T09:18:18;12.48;;;9.70;;
52978;SDS011;63430;53.186;6.598;2023-02-28T09:20:20;13.30;;;9.60;;
52978;SDS011;63430;53.186;6.598;2023-02-28T09:22:23;13.82;;;9.23;;
52978;SDS011;63430;53.186;6.598;2023-02-28T09:24:28;11.68;;;9.35;;
52978;SDS011;63430;53.186;6.598;2023-02-28T09:26:36;15.43;;;10.23;;
52978;SDS011;63430;53.186;6.598;2023-02-28T09:28:48;13.70;;;9.50;;
52978;SDS011;63430;53.186;6.598;2023-02-28T09:30:51;14.27;;;8.65;;
52978;SDS011;63430;53.186;6.598;2023-02-28T09:32:56;14.48;;;8.68;;
52978;SDS011;63430;53.186;6.598;2023-02-28T09:34:58;25.88;;;9.68;;
52978;SDS011;63430;53.186;6.598;2023-02-28T09:37:00;12.10;;;8.98;;
52978;SDS011;63430;53.186;6.598;2023-02-28T09:39:04;14.47;;;9.70;;
52978;SDS011;63430;53.186;6.598;2023-02-28T09:41:10;14.68;;;8.52;;
52978;SDS011;63430;53.186;6.598;2023-02-28T09:43:19;12.55;;;8.90;;
52978;SDS011;63430;53.186;6.598;2023-02-28T09:45:25;15.82;;;8.98;;
52978;SDS011;63430;53.186;6.598;2023-02-28T09:47:35;12.38;;;8.95;;
52978;SDS011;63430;53.186;6.598;2023-02-28T09:49:44;13.00;;;8.95;;
52978;SDS011;63430;53.186;6.598;2023-02-28T09:51:50;12.18;;;8.85;;
52978;SDS011;63430;53.186;6.598;2023-02-28T09:54:01;10.65;;;7.43;;
52978;SDS011;63430;53.186;6.598;2023-02-28T09:56:05;9.82;;;7.80;;
52978;SDS011;63430;53.186;6.598;2023-02-28T09:58:16;10.55;;;7.85;;
52978;SDS011;63430;53.186;6.598;2023-02-28T10:00:32;10.13;;;7.90;;
52978;SDS011;63430;53.186;6.598;2023-02-28T10:02:49;10.52;;;7.78;;
52978;SDS011;63430;53.186;6.598;2023-02-28T10:05:02;15.98;;;8.75;;
52978;SDS011;63430;53.186;6.598;2023-02-28T10:07:13;11.70;;;8.40;;
52978;SDS011;63430;53.186;6.598;2023-02-28T10:09:24;14.57;;;8.90;;
52978;SDS011;63430;53.186;6.598;2023-02-28T10:11:28;10.10;;;7.13;;
52978;SDS011;63430;53.186;6.598;2023-02-28T10:13:37;11.07;;;7.70;;
52978;SDS011;63430;53.186;6.598;2023-02-28T10:15:48;9.98;;;7.47;;
52978;SDS011;63430;53.186;6.598;2023-02-28T10:17:57;14.88;;;7.45;;
52978;SDS011;63430;53.186;6.598;2023-02-28T10:20:12;15.95;;;7.90;;
52978;SDS011;63430;53.186;6.598;2023-02-28T10:22:22;12.23;;;7.60;;
52978;SDS011;63430;53.186;6.598;2023-02-28T10:24:30;9.82;;;7.43;;
52978;SDS011;63430;53.186;6.598;2023-02-28T10:26:36;11.30;;;7.32;;
52978;SDS011;63430;53.186;6.598;2023-02-28T10:28:41;10.45;;;7.97;;
52978;SDS011;63430;53.186;6.598;2023-02-28T10:30:47;13.63;;;7.70;;
52978;SDS011;63430;53.186;6.598;2023-02-28T10:32:52;8.38;;;6.97;;
52978;SDS011;63430;53.186;6.598;2023-02-28T10:34:56;9.85;;;7.25;;
52978;SDS011;63430;53.186;6.598;2023-02-28T10:37:02;11.30;;;7.47;;
52978;SDS011;63430;53.186;6.598;2023-02-28T10:41:37;9.90;;;6.55;;
52978;SDS011;63430;53.186;6.598;2023-02-28T10:43:47;9.48;;;6.32;;
52978;SDS011;63430;53.186;6.598;2023-02-28T10:45:53;7.47;;;6.53;;
52978;SDS011;63430;53.186;6.598;2023-02-28T10:48:02;6.95;;;6.25;;
52978;SDS011;63430;53.186;6.598;2023-02-28T10:50:09;9.07;;;6.70;;
52978;SDS011;63430;53.186;6.598;2023-02-28T10:52:33;8.95;;;6.25;;
52978;SDS011;63430;53.186;6.598;2023-02-28T10:54:43;8.90;;;6.07;;
52978;SDS011;63430;53.186;6.598;2023-02-28T10:56:46;11.98;;;6.50;;
52978;SDS011;63430;53.186;6.598;2023-02-28T10:59:24;8.82;;;6.22;;
52978;SDS011;63430;53.186;6.598;2023-02-28T11:01:36;9.13;;;6.60;;
52978;SDS011;63430;53.186;6.598;2023-02-28T11:03:49;13.48;;;6.20;;
52978;SDS011;63430;53.186;6.598;2023-02-28T11:05:52;11.02;;;8.88;;
52978;SDS011;63430;53.186;6.598;2023-02-28T11:08:01;8.60;;;6.10;;
52978;SDS011;63430;53.186;6.598;2023-02-28T11:10:16;7.25;;;5.80;;
52978;SDS011;63430;53.186;6.598;2023-02-28T11:12:22;6.50;;;5.03;;
52978;SDS011;63430;53.186;6.598;2023-02-28T11:14:30;6.82;;;6.07;;
52978;SDS011;63430;53.186;6.598;2023-02-28T11:16:36;9.07;;;6.32;;
52978;SDS011;63430;53.186;6.598;2023-02-28T11:18:47;10.45;;;6.57;;
52978;SDS011;63430;53.186;6.598;2023-02-28T11:20:52;11.73;;;6.30;;
52978;SDS011;63430;53.186;6.598;2023-02-28T11:22:57;7.63;;;6.45;;
52978;SDS011;63430;53.186;6.598;2023-02-28T11:25:09;6.88;;;5.85;;
52978;SDS011;63430;53.186;6.598;2023-02-28T11:27:26;8.32;;;6.53;;
52978;SDS011;63430;53.186;6.598;2023-02-28T11:29:51;7.70;;;5.85;;
52978;SDS011;63430;53.186;6.598;2023-02-28T11:32:04;5.90;;;5.30;;
52978;SDS011;63430;53.186;6.598;2023-02-28T11:34:24;6.43;;;5.50;;
52978;SDS011;63430;53.186;6.598;2023-02-28T11:36:30;6.93;;;5.28;;
52978;SDS011;63430;53.186;6.598;2023-02-28T11:40:39;5.60;;;5.10;;
52978;SDS011;63430;53.186;6.598;2023-02-28T11:42:50;8.07;;;4.97;;
52978;SDS011;63430;53.186;6.598;2023-02-28T11:45:07;6.05;;;4.57;;
52978;SDS011;63430;53.186;6.598;2023-02-28T11:47:19;6.70;;;5.13;;
52978;SDS011;63430;53.186;6.598;2023-02-28T11:49:32;7.15;;;5.07;;
52978;SDS011;63430;53.186;6.598;2023-02-28T11:51:42;6.25;;;5.10;;
52978;SDS011;63430;53.186;6.598;2023-02-28T11:53:55;6.00;;;5.40;;
52978;SDS011;63430;53.186;6.598;2023-02-28T11:56:18;5.90;;;5.18;;
52978;SDS011;63430;53.186;6.598;2023-02-28T11:58:29;6.55;;;5.10;;
52978;SDS011;63430;53.186;6.598;2023-02-28T12:00:43;6.90;;;4.85;;
52978;SDS011;63430;53.186;6.598;2023-02-28T12:03:11;6.63;;;4.80;;
52978;SDS011;63430;53.186;6.598;2023-02-28T12:05:26;7.10;;;4.82;;
52978;SDS011;63430;53.186;6.598;2023-02-28T12:07:34;5.75;;;4.68;;
52978;SDS011;63430;53.186;6.598;2023-02-28T12:09:47;7.38;;;4.70;;
52978;SDS011;63430;53.186;6.598;2023-02-28T12:11:59;6.15;;;5.18;;
52978;SDS011;63430;53.186;6.598;2023-02-28T12:17:01;7.10;;;5.18;;
52978;SDS011;63430;53.186;6.598;2023-02-28T12:19:17;7.95;;;4.97;;
52978;SDS011;63430;53.186;6.598;2023-02-28T12:21:26;5.82;;;5.22;;
52978;SDS011;63430;53.186;6.598;2023-02-28T12:23:43;7.55;;;4.97;;
52978;SDS011;63430;53.186;6.598;2023-02-28T12:26:09;7.05;;;5.25;;
52978;SDS011;63430;53.186;6.598;2023-02-28T12:28:20;7.68;;;5.00;;
52978;SDS011;63430;53.186;6.598;2023-02-28T12:30:28;5.93;;;5.15;;
52978;SDS011;63430;53.186;6.598;2023-02-28T12:32:36;5.47;;;4.93;;
52978;SDS011;63430;53.186;6.598;2023-02-28T12:34:42;6.57;;;5.18;;
52978;SDS011;63430;53.186;6.598;2023-02-28T12:36:47;6.88;;;4.80;;
52978;SDS011;63430;53.186;6.598;2023-02-28T12:38:54;5.65;;;4.72;;
52978;SDS011;63430;53.186;6.598;2023-02-28T12:41:01;6.22;;;4.25;;
52978;SDS011;63430;53.186;6.598;2023-02-28T12:43:18;8.80;;;5.10;;
52978;SDS011;63430;53.186;6.598;2023-02-28T12:45:24;6.35;;;5.10;;
52978;SDS011;63430;53.186;6.598;2023-02-28T12:47:30;6.63;;;4.80;;
52978;SDS011;63430;53.186;6.598;2023-02-28T12:51:42;8.35;;;4.80;;
52978;SDS011;63430;53.186;6.598;2023-02-28T12:53:50;10.10;;;5.05;;
52978;SDS011;63430;53.186;6.598;2023-02-28T12:56:02;6.88;;;5.00;;
52978;SDS011;63430;53.186;6.598;2023-02-28T12:58:15;6.72;;;5.60;;
52978;SDS011;63430;53.186;6.598;2023-02-28T13:00:33;6.43;;;5.47;;